createdAt,value
2022-08-03T00:00:12.129Z,21.00
2022-08-03T00:01:14.813Z,21.00
2022-08-03T00:02:17.799Z,21.00
2022-08-03T00:03:53.154Z,20.94
2022-08-03T00:04:55.784Z,20.94
2022-08-03T00:06:04.739Z,20.88
2022-08-03T00:07:44.788Z,20.81
2022-08-03T00:08:54.358Z,20.81
2022-08-03T00:09:57.056Z,20.81
2022-08-03T00:11:31.384Z,20.75
2022-08-03T00:12:37.194Z,20.75
2022-08-03T00:13:39.949Z,20.75
2022-08-03T00:15:16.431Z,20.75
2022-08-03T00:16:20.110Z,20.75
2022-08-03T00:17:25.897Z,20.75
2022-08-03T00:19:22.101Z,20.69
2022-08-03T00:20:24.822Z,20.63
2022-08-03T00:21:27.709Z,20.63
2022-08-03T00:23:04.449Z,20.63
2022-08-03T00:24:31.499Z,20.63
2022-08-03T00:25:34.245Z,20.56
2022-08-03T00:27:09.033Z,20.56
2022-08-03T00:28:18.631Z,20.56
2022-08-03T00:29:24.190Z,20.56
2022-08-03T00:31:51.418Z,20.56
2022-08-03T00:33:05.201Z,20.56
2022-08-03T00:34:58.647Z,20.50
2022-08-03T00:37:09.065Z,20.50
2022-08-03T00:38:32.673Z,20.50
2022-08-03T00:39:35.548Z,20.44
2022-08-03T00:41:12.309Z,20.44
2022-08-03T00:42:18.779Z,20.44
2022-08-03T00:43:25.786Z,20.44
2022-08-03T00:45:00.260Z,20.38
2022-08-03T00:46:02.913Z,20.38
2022-08-03T00:47:12.754Z,20.38
2022-08-03T00:49:10.079Z,20.38
2022-08-03T00:50:13.355Z,20.38
2022-08-03T00:51:16.022Z,20.31
2022-08-03T00:52:55.957Z,20.25
2022-08-03T00:53:58.936Z,20.25
2022-08-03T00:55:01.796Z,20.25
2022-08-03T00:56:36.202Z,20.25
2022-08-03T00:57:57.443Z,20.19
2022-08-03T00:59:00.133Z,20.19
2022-08-03T01:00:11.649Z,20.19
2022-08-03T01:01:14.491Z,20.19
2022-08-03T01:02:24.241Z,20.19
2022-08-03T01:03:58.749Z,20.13
2022-08-03T01:05:01.702Z,20.13
2022-08-03T01:06:04.426Z,20.13
2022-08-03T01:07:38.889Z,20.06
2022-08-03T01:08:41.585Z,20.06
2022-08-03T01:09:44.220Z,20.06
2022-08-03T01:11:19.064Z,20.06
2022-08-03T01:12:46.251Z,20.06
2022-08-03T01:14:54.301Z,20.06
2022-08-03T01:16:36.683Z,20.06
2022-08-03T01:17:39.936Z,20.00
2022-08-03T01:18:44.426Z,20.00
2022-08-03T01:20:19.054Z,20.00
2022-08-03T01:21:21.800Z,20.00
2022-08-03T01:22:27.101Z,19.94
2022-08-03T01:24:03.977Z,19.94
2022-08-03T01:25:06.588Z,19.94
2022-08-03T01:26:09.383Z,19.94
2022-08-03T01:27:43.934Z,19.94
2022-08-03T01:28:46.606Z,19.88
2022-08-03T01:29:49.372Z,19.88
2022-08-03T01:31:23.801Z,19.88
2022-08-03T01:33:48.511Z,19.88
2022-08-03T01:34:55.265Z,19.88
2022-08-03T01:36:32.031Z,19.88
2022-08-03T01:37:34.913Z,19.88
2022-08-03T01:38:41.379Z,19.81
2022-08-03T01:40:16.753Z,19.81
2022-08-03T01:41:19.437Z,19.81
2022-08-03T01:42:22.180Z,19.81
2022-08-03T01:45:10.744Z,19.81
2022-08-03T01:46:14.729Z,19.81
2022-08-03T01:47:23.968Z,19.81
2022-08-03T01:48:58.497Z,19.81
2022-08-03T01:50:07.244Z,19.81
2022-08-03T01:51:10.013Z,19.81
2022-08-03T01:53:23.047Z,19.75
2022-08-03T01:54:25.812Z,19.75
2022-08-03T01:55:28.517Z,19.75
2022-08-03T01:57:02.976Z,19.69
2022-08-03T01:58:06.806Z,19.69
2022-08-03T01:59:09.687Z,19.69
2022-08-03T02:00:12.183Z,19.69
2022-08-03T02:01:17.147Z,19.63
2022-08-03T02:03:26.068Z,19.63
2022-08-03T02:05:18.809Z,19.63
2022-08-03T02:07:00.601Z,19.56
2022-08-03T02:08:05.069Z,19.56
2022-08-03T02:09:39.729Z,19.56
2022-08-03T02:10:42.506Z,19.56
2022-08-03T02:11:45.407Z,19.50
2022-08-03T02:13:20.911Z,19.50
2022-08-03T02:14:23.712Z,19.50
2022-08-03T02:15:26.452Z,19.50
2022-08-03T02:17:00.830Z,19.50
2022-08-03T02:18:20.290Z,19.50
2022-08-03T02:19:23.219Z,19.50
2022-08-03T02:21:10.798Z,19.50
2022-08-03T02:22:58.202Z,19.50
2022-08-03T02:24:00.805Z,19.44
2022-08-03T02:25:37.331Z,19.44
2022-08-03T02:26:42.520Z,19.44
2022-08-03T02:27:45.212Z,19.44
2022-08-03T02:29:20.550Z,19.44
2022-08-03T02:30:43.209Z,19.38
2022-08-03T02:31:51.215Z,19.38
2022-08-03T02:33:26.531Z,19.38
2022-08-03T02:34:29.136Z,19.31
2022-08-03T02:35:31.789Z,19.31
2022-08-03T02:37:06.385Z,19.31
2022-08-03T02:38:09.002Z,19.31
2022-08-03T02:39:11.821Z,19.31
2022-08-03T02:40:46.310Z,19.25
2022-08-03T02:41:49.224Z,19.25
2022-08-03T02:42:57.059Z,19.25
2022-08-03T02:44:53.191Z,19.19
2022-08-03T02:45:58.291Z,19.19
2022-08-03T02:47:02.903Z,19.19
2022-08-03T02:49:41.174Z,19.19
2022-08-03T02:50:54.175Z,19.19
2022-08-03T02:51:56.939Z,19.19
2022-08-03T02:53:36.727Z,19.13
2022-08-03T02:54:39.554Z,19.13
2022-08-03T02:55:45.633Z,19.13
2022-08-03T02:57:20.495Z,19.13
2022-08-03T02:58:23.230Z,19.13
2022-08-03T02:59:26.038Z,19.13
2022-08-03T03:00:11.947Z,19.13
2022-08-03T03:01:25.553Z,19.13
2022-08-03T03:02:28.463Z,19.06
2022-08-03T03:04:19.873Z,19.06
2022-08-03T03:06:47.291Z,19.00
2022-08-03T03:07:56.180Z,19.00
2022-08-03T03:09:48.773Z,19.00
2022-08-03T03:10:55.472Z,18.94
2022-08-03T03:11:58.489Z,18.94
2022-08-03T03:13:33.352Z,18.94
2022-08-03T03:14:36.008Z,18.94
2022-08-03T03:15:38.657Z,18.94
2022-08-03T03:17:13.399Z,18.88
2022-08-03T03:18:20.201Z,18.88
2022-08-03T03:19:25.136Z,18.88
2022-08-03T03:21:10.819Z,18.88
2022-08-03T03:22:15.791Z,18.88
2022-08-03T03:23:20.412Z,18.88
2022-08-03T03:24:57.303Z,18.88
2022-08-03T03:26:00.914Z,18.88
2022-08-03T03:27:03.585Z,18.81
2022-08-03T03:28:46.770Z,18.81
2022-08-03T03:29:49.390Z,18.81
2022-08-03T03:30:52.776Z,18.75
2022-08-03T03:32:27.713Z,18.75
2022-08-03T03:33:33.008Z,18.75
2022-08-03T03:34:35.715Z,18.75
2022-08-03T03:36:19.758Z,18.75
2022-08-03T03:37:22.444Z,18.75
2022-08-03T03:38:25.206Z,18.75
2022-08-03T03:40:02.281Z,18.75
2022-08-03T03:41:05.122Z,18.75
2022-08-03T03:42:14.469Z,18.75
2022-08-03T03:43:48.989Z,18.75
2022-08-03T03:44:52.103Z,18.75
2022-08-03T03:45:56.594Z,18.75
2022-08-03T03:47:32.253Z,18.75
2022-08-03T03:48:35.746Z,18.75
2022-08-03T03:49:38.726Z,18.75
2022-08-03T03:51:15.869Z,18.75
2022-08-03T03:52:18.487Z,18.69
2022-08-03T03:53:21.238Z,18.69
2022-08-03T03:55:00.675Z,18.63
2022-08-03T03:56:03.968Z,18.63
2022-08-03T03:57:06.622Z,18.63
2022-08-03T03:58:42.917Z,18.63
2022-08-03T03:59:45.548Z,18.56
2022-08-03T04:00:12.589Z,18.56
2022-08-03T04:01:15.806Z,18.56
2022-08-03T04:02:18.580Z,18.56
2022-08-03T04:03:54.279Z,18.50
2022-08-03T04:04:57.950Z,18.50
2022-08-03T04:05:45.787Z,18.50
2022-08-03T04:06:49.163Z,18.50
2022-08-03T04:07:52.103Z,18.50
2022-08-03T04:09:30.113Z,18.44
2022-08-03T04:10:43.601Z,18.44
2022-08-03T04:11:46.448Z,18.38
2022-08-03T04:13:31.171Z,18.44
2022-08-03T04:14:37.003Z,18.44
2022-08-03T04:15:39.836Z,18.44
2022-08-03T04:17:18.570Z,18.44
2022-08-03T04:18:21.441Z,18.44
2022-08-03T04:19:26.984Z,18.44
2022-08-03T04:21:01.582Z,18.44
2022-08-03T04:22:04.434Z,18.44
2022-08-03T04:23:12.767Z,18.44
2022-08-03T04:24:50.250Z,18.44
2022-08-03T04:25:53.044Z,18.44
2022-08-03T04:26:55.830Z,18.44
2022-08-03T04:29:12.160Z,18.38
2022-08-03T04:30:23.332Z,18.38
2022-08-03T04:31:26.114Z,18.38
2022-08-03T04:33:01.019Z,18.38
2022-08-03T04:34:11.292Z,18.38
2022-08-03T04:35:14.057Z,18.38
2022-08-03T04:37:24.807Z,18.44
2022-08-03T04:38:27.529Z,18.44
2022-08-03T04:39:30.327Z,18.44
2022-08-03T04:41:12.501Z,18.44
2022-08-03T04:42:48.846Z,18.44
2022-08-03T04:43:51.604Z,18.44
2022-08-03T04:45:26.000Z,18.44
2022-08-03T04:46:28.682Z,18.44
2022-08-03T04:47:38.845Z,18.44
2022-08-03T04:49:19.594Z,18.44
2022-08-03T04:50:22.755Z,18.44
2022-08-03T04:51:25.467Z,18.44
2022-08-03T04:53:00.846Z,18.44
2022-08-03T04:54:05.592Z,18.44
2022-08-03T04:55:08.440Z,18.44
2022-08-03T04:56:47.289Z,18.50
2022-08-03T04:57:58.245Z,18.50
2022-08-03T04:59:01.039Z,18.50
2022-08-03T05:00:12.124Z,18.50
2022-08-03T05:01:14.885Z,18.50
2022-08-03T05:02:18.619Z,18.56
2022-08-03T05:04:09.771Z,18.56
2022-08-03T05:05:12.501Z,18.56
2022-08-03T05:06:54.968Z,18.56
2022-08-03T05:09:03.264Z,18.63
2022-08-03T05:10:51.624Z,18.63
2022-08-03T05:11:56.805Z,18.63
2022-08-03T05:13:37.420Z,18.63
2022-08-03T05:14:40.104Z,18.63
2022-08-03T05:15:43.380Z,18.69
2022-08-03T05:17:18.038Z,18.69
2022-08-03T05:18:20.997Z,18.69
2022-08-03T05:19:23.785Z,18.75
2022-08-03T05:20:59.526Z,18.75
2022-08-03T05:22:27.785Z,18.81
2022-08-03T05:23:30.489Z,18.81
2022-08-03T05:25:04.987Z,18.81
2022-08-03T05:26:24.773Z,18.88
2022-08-03T05:27:29.523Z,18.88
2022-08-03T05:29:04.088Z,18.94
2022-08-03T05:30:29.627Z,18.94
2022-08-03T05:31:35.855Z,18.94
2022-08-03T05:33:14.662Z,19.00
2022-08-03T05:34:17.464Z,19.00
2022-08-03T05:36:00.564Z,19.06
2022-08-03T05:37:38.282Z,19.06
2022-08-03T05:39:10.401Z,19.13
2022-08-03T05:40:13.141Z,19.19
2022-08-03T05:42:18.099Z,19.19
2022-08-03T05:43:21.238Z,19.25
2022-08-03T05:44:23.873Z,19.31
2022-08-03T05:46:11.737Z,19.31
2022-08-03T05:47:15.855Z,19.38
2022-08-03T05:48:18.510Z,19.44
2022-08-03T05:49:53.989Z,19.50
2022-08-03T05:50:56.761Z,19.56
2022-08-03T05:52:08.628Z,19.56
2022-08-03T05:53:50.232Z,19.69
2022-08-03T05:54:53.852Z,19.69
2022-08-03T05:56:03.597Z,19.75
2022-08-03T05:57:49.438Z,19.88
2022-08-03T05:58:57.119Z,19.94
2022-08-03T06:00:12.616Z,20.00
2022-08-03T06:01:19.279Z,20.00
2022-08-03T06:02:22.593Z,20.13
2022-08-03T06:04:01.647Z,20.19
2022-08-03T06:05:04.650Z,20.25
2022-08-03T06:06:07.529Z,20.31
2022-08-03T06:07:44.761Z,20.38
2022-08-03T06:08:50.404Z,20.38
2022-08-03T06:10:36.897Z,20.44
2022-08-03T06:12:14.343Z,20.50
2022-08-03T06:13:17.623Z,20.50
2022-08-03T06:14:20.340Z,20.56
2022-08-03T06:15:57.904Z,20.63
2022-08-03T06:17:01.841Z,20.63
2022-08-03T06:18:12.650Z,20.69
2022-08-03T06:19:47.858Z,20.69
2022-08-03T06:20:50.713Z,20.75
2022-08-03T06:22:15.119Z,20.75
2022-08-03T06:24:37.375Z,20.81
2022-08-03T06:26:01.850Z,20.81
2022-08-03T06:27:05.230Z,20.81
2022-08-03T06:29:34.273Z,20.88
2022-08-03T06:30:38.033Z,20.88
2022-08-03T06:31:41.641Z,20.88
2022-08-03T06:33:26.510Z,20.88
2022-08-03T06:35:34.427Z,21.00
2022-08-03T06:36:41.932Z,21.06
2022-08-03T06:38:20.504Z,21.13
2022-08-03T06:39:23.580Z,21.19
2022-08-03T06:40:27.251Z,21.19
2022-08-03T06:42:03.104Z,21.25
2022-08-03T06:43:12.739Z,21.25
2022-08-03T06:44:45.189Z,21.38
2022-08-03T06:46:22.482Z,21.56
2022-08-03T06:47:25.609Z,21.69
2022-08-03T06:48:30.646Z,21.81
2022-08-03T06:50:16.423Z,21.94
2022-08-03T06:51:23.632Z,22.00
2022-08-03T06:53:35.563Z,22.13
2022-08-03T06:55:13.688Z,22.06
2022-08-03T06:56:29.178Z,22.06
2022-08-03T06:57:32.018Z,22.06
2022-08-03T07:00:08.644Z,22.06
2022-08-03T07:00:12.690Z,22.06
2022-08-03T07:01:15.874Z,22.13
2022-08-03T07:02:22.183Z,22.19
2022-08-03T07:04:04.250Z,22.31
2022-08-03T07:05:07.054Z,22.44
2022-08-03T07:06:09.882Z,22.56
2022-08-03T07:07:44.736Z,22.63
2022-08-03T07:08:51.836Z,22.63
2022-08-03T07:09:58.181Z,22.63
2022-08-03T07:11:33.211Z,22.56
2022-08-03T07:12:36.095Z,22.56
2022-08-03T07:13:54.020Z,22.50
2022-08-03T07:15:55.421Z,22.50
2022-08-03T07:16:59.300Z,22.50
2022-08-03T07:18:09.373Z,22.50
2022-08-03T07:19:53.449Z,22.56
2022-08-03T07:20:56.169Z,22.63
2022-08-03T07:22:02.188Z,22.69
2022-08-03T07:23:38.974Z,22.75
2022-08-03T07:24:41.625Z,22.81
2022-08-03T07:25:46.089Z,22.88
2022-08-03T07:27:23.318Z,22.94
2022-08-03T07:28:33.060Z,23.00
2022-08-03T07:29:35.808Z,23.13
2022-08-03T07:31:10.193Z,23.19
2022-08-03T07:32:20.164Z,23.31
2022-08-03T07:33:36.452Z,23.31
2022-08-03T07:35:24.924Z,23.38
2022-08-03T07:36:28.443Z,23.38
2022-08-03T07:37:31.544Z,23.44
2022-08-03T07:39:18.242Z,23.44
2022-08-03T07:40:21.463Z,23.44
2022-08-03T07:41:32.480Z,23.50
2022-08-03T07:43:10.372Z,23.44
2022-08-03T07:44:13.302Z,23.38
2022-08-03T07:45:16.784Z,23.38
2022-08-03T07:46:51.572Z,23.44
2022-08-03T07:48:12.568Z,23.56
2022-08-03T07:49:15.625Z,23.63
2022-08-03T07:50:50.671Z,23.69
2022-08-03T07:51:53.390Z,23.75
2022-08-03T07:53:03.303Z,23.81
2022-08-03T07:54:39.536Z,23.88
2022-08-03T07:55:42.333Z,23.94
2022-08-03T07:56:51.956Z,23.94
2022-08-03T07:58:26.499Z,24.00
2022-08-03T07:59:29.380Z,24.00
2022-08-03T08:00:11.805Z,24.06
2022-08-03T08:01:14.857Z,24.06
2022-08-03T08:02:18.860Z,24.06
2022-08-03T08:03:53.823Z,24.19
2022-08-03T08:04:56.661Z,24.25
2022-08-03T08:06:03.114Z,24.31
2022-08-03T08:07:38.764Z,24.38
2022-08-03T08:08:48.165Z,24.38
2022-08-03T08:09:50.817Z,24.44
2022-08-03T08:11:40.141Z,24.56
2022-08-03T08:12:50.572Z,24.69
2022-08-03T08:13:53.305Z,24.75
2022-08-03T08:15:27.748Z,24.88
2022-08-03T08:16:36.448Z,24.88
2022-08-03T08:17:42.340Z,24.94
2022-08-03T08:19:17.097Z,25.06
2022-08-03T08:20:38.274Z,25.00
2022-08-03T08:21:53.100Z,25.06
2022-08-03T08:24:31.967Z,25.31
2022-08-03T08:25:38.416Z,25.44
2022-08-03T08:26:41.132Z,25.50
2022-08-03T08:29:19.098Z,25.63
2022-08-03T08:30:46.346Z,25.75
2022-08-03T08:31:49.910Z,25.81
2022-08-03T08:33:25.810Z,25.88
2022-08-03T08:35:00.098Z,25.88
2022-08-03T08:36:02.751Z,25.94
2022-08-03T08:37:43.920Z,25.94
2022-08-03T08:38:57.439Z,25.94
2022-08-03T08:40:03.462Z,26.00
2022-08-03T08:41:37.893Z,26.00
2022-08-03T08:42:58.361Z,26.06
2022-08-03T08:44:01.852Z,26.06
2022-08-03T08:45:36.393Z,26.13
2022-08-03T08:46:39.058Z,26.13
2022-08-03T08:47:51.392Z,26.13
2022-08-03T08:49:32.825Z,26.25
2022-08-03T08:51:14.087Z,26.38
2022-08-03T08:53:18.171Z,26.50
2022-08-03T08:54:56.758Z,26.69
2022-08-03T08:56:00.487Z,26.81
2022-08-03T08:57:12.425Z,26.88
2022-08-03T08:59:10.191Z,27.06
2022-08-03T09:00:12.479Z,27.13
2022-08-03T09:01:15.251Z,27.13
2022-08-03T09:02:19.770Z,27.13
2022-08-03T09:04:09.936Z,27.19
2022-08-03T09:05:12.845Z,27.25
2022-08-03T09:07:04.475Z,27.38
2022-08-03T09:08:52.621Z,27.44
2022-08-03T09:10:53.781Z,27.56
2022-08-03T09:12:41.524Z,27.63
2022-08-03T09:14:36.716Z,27.69
2022-08-03T09:16:12.174Z,27.69
2022-08-03T09:17:17.207Z,27.69
2022-08-03T09:18:57.680Z,27.69
2022-08-03T09:20:03.424Z,27.75
2022-08-03T09:21:24.293Z,27.88
2022-08-03T09:23:18.995Z,27.94
2022-08-03T09:26:00.079Z,28.13
2022-08-03T09:27:02.960Z,28.13
2022-08-03T09:28:57.962Z,28.19
2022-08-03T09:30:33.482Z,28.25
2022-08-03T09:31:37.557Z,28.25
2022-08-03T09:33:15.234Z,28.31
2022-08-03T09:34:27.670Z,28.38
2022-08-03T09:35:53.709Z,28.44
2022-08-03T09:38:12.180Z,28.44
2022-08-03T09:39:17.124Z,28.50
2022-08-03T09:40:39.207Z,28.50
2022-08-03T09:42:18.630Z,28.50
2022-08-03T09:43:21.450Z,28.56
2022-08-03T09:44:25.973Z,28.63
2022-08-03T09:46:00.895Z,28.75
2022-08-03T09:47:03.649Z,28.81
2022-08-03T09:48:08.903Z,28.81
2022-08-03T09:49:51.933Z,28.81
2022-08-03T09:50:57.084Z,28.88
2022-08-03T09:53:41.992Z,28.81
2022-08-03T09:57:10.252Z,28.81
2022-08-03T09:58:13.577Z,28.88
2022-08-03T09:59:16.265Z,28.94
2022-08-03T10:00:11.927Z,28.94
2022-08-03T10:01:25.308Z,28.94
2022-08-03T10:02:28.794Z,29.00
2022-08-03T10:04:04.926Z,29.00
2022-08-03T10:05:08.069Z,29.00
2022-08-03T10:06:17.376Z,29.00
2022-08-03T10:07:58.131Z,28.94
2022-08-03T10:09:00.852Z,28.88
2022-08-03T10:10:30.689Z,28.94
2022-08-03T10:12:16.065Z,29.13
2022-08-03T10:13:21.291Z,29.19
2022-08-03T10:14:24.182Z,29.19
2022-08-03T10:17:11.376Z,29.25
2022-08-03T10:18:20.578Z,29.44
2022-08-03T10:19:23.308Z,29.44
2022-08-03T10:20:57.894Z,29.44
2022-08-03T10:22:00.651Z,29.44
2022-08-03T10:23:03.369Z,29.38
2022-08-03T10:24:40.735Z,29.38
2022-08-03T10:25:43.368Z,29.38
2022-08-03T10:26:49.830Z,29.44
2022-08-03T10:28:25.419Z,29.44
2022-08-03T10:29:33.176Z,29.44
2022-08-03T10:30:36.111Z,29.50
2022-08-03T10:32:29.538Z,29.50
2022-08-03T10:33:50.906Z,29.50
2022-08-03T10:35:00.176Z,29.69
2022-08-03T10:36:49.790Z,29.88
2022-08-03T10:37:56.533Z,30.00
2022-08-03T10:39:00.019Z,30.00
2022-08-03T10:41:08.091Z,30.13
2022-08-03T10:42:14.803Z,30.19
2022-08-03T10:43:20.794Z,30.19
2022-08-03T10:44:55.841Z,30.25
2022-08-03T10:45:58.665Z,30.31
2022-08-03T10:47:01.430Z,30.31
2022-08-03T10:48:36.738Z,30.25
2022-08-03T10:49:39.975Z,30.25
2022-08-03T10:50:43.876Z,30.25
2022-08-03T10:52:32.948Z,30.31
2022-08-03T10:53:55.551Z,30.38
2022-08-03T10:55:07.507Z,30.38
2022-08-03T10:56:55.127Z,30.50
2022-08-03T10:58:15.768Z,30.50
2022-08-03T11:00:12.586Z,30.44
2022-08-03T11:01:15.895Z,30.38
2022-08-03T11:02:50.129Z,30.38
2022-08-03T11:04:24.815Z,30.38
2022-08-03T11:05:28.516Z,30.38
2022-08-03T11:06:37.268Z,30.44
2022-08-03T11:08:12.532Z,30.50
2022-08-03T11:09:15.435Z,30.50
2022-08-03T11:10:18.477Z,30.50
2022-08-03T11:11:53.452Z,30.56
2022-08-03T11:13:04.891Z,30.63
2022-08-03T11:14:10.342Z,30.69
2022-08-03T11:15:45.430Z,30.75
2022-08-03T11:17:03.141Z,30.81
2022-08-03T11:18:30.651Z,30.88
2022-08-03T11:20:31.956Z,30.88
2022-08-03T11:21:34.558Z,30.81
2022-08-03T11:22:37.415Z,30.75
2022-08-03T11:24:52.250Z,30.63
2022-08-03T11:26:40.598Z,30.63
2022-08-03T11:27:46.419Z,30.69
2022-08-03T11:29:21.588Z,30.63
2022-08-03T11:30:27.652Z,30.63
2022-08-03T11:31:49.374Z,30.63
2022-08-03T11:33:34.261Z,30.75
2022-08-03T11:34:38.736Z,30.88
2022-08-03T11:35:41.525Z,31.00
2022-08-03T11:37:18.999Z,31.13
2022-08-03T11:38:52.903Z,31.19
2022-08-03T11:39:57.544Z,31.13
2022-08-03T11:41:32.575Z,31.13
2022-08-03T11:42:45.718Z,31.13
2022-08-03T11:43:48.552Z,31.13
2022-08-03T11:45:28.107Z,31.19
2022-08-03T11:46:30.809Z,31.19
2022-08-03T11:47:33.540Z,31.25
2022-08-03T11:49:20.599Z,31.19
2022-08-03T11:50:24.148Z,31.19
2022-08-03T11:51:27.046Z,31.19
2022-08-03T11:53:09.033Z,31.25
2022-08-03T11:54:17.148Z,31.19
2022-08-03T11:55:19.951Z,31.13
2022-08-03T11:56:59.610Z,31.13
2022-08-03T11:59:57.394Z,31.19
2022-08-03T12:00:12.261Z,31.19
2022-08-03T12:01:22.630Z,31.19
2022-08-03T12:02:25.639Z,31.19
2022-08-03T12:04:02.046Z,31.19
2022-08-03T12:05:05.102Z,31.31
2022-08-03T12:06:07.681Z,31.38
2022-08-03T12:08:03.579Z,31.38
2022-08-03T12:09:09.095Z,31.44
2022-08-03T12:10:18.696Z,31.50
2022-08-03T12:12:00.636Z,31.69
2022-08-03T12:14:44.211Z,31.69
2022-08-03T12:15:52.229Z,31.94
2022-08-03T12:17:29.157Z,31.94
2022-08-03T12:18:37.776Z,31.88
2022-08-03T12:19:40.403Z,31.94
2022-08-03T12:21:21.477Z,31.88
2022-08-03T12:22:37.369Z,31.88
2022-08-03T12:23:40.112Z,32.00
2022-08-03T12:25:14.561Z,32.06
2022-08-03T12:26:37.472Z,32.06
2022-08-03T12:27:51.682Z,32.19
2022-08-03T12:30:01.890Z,32.19
2022-08-03T12:31:05.361Z,32.13
2022-08-03T12:32:08.161Z,32.00
2022-08-03T12:33:43.071Z,32.00
2022-08-03T12:34:47.351Z,32.00
2022-08-03T12:35:53.478Z,31.94
2022-08-03T12:37:30.287Z,31.88
2022-08-03T12:38:36.391Z,31.88
2022-08-03T12:40:01.345Z,31.94
2022-08-03T12:41:47.296Z,31.94
2022-08-03T12:42:51.385Z,31.94
2022-08-03T12:43:54.176Z,32.00
2022-08-03T12:45:36.819Z,32.06
2022-08-03T12:46:43.993Z,32.13
2022-08-03T12:47:51.040Z,32.25
2022-08-03T12:49:30.613Z,32.25
2022-08-03T12:50:36.111Z,32.25
2022-08-03T12:51:45.225Z,32.25
2022-08-03T12:53:25.299Z,32.25
2022-08-03T12:54:27.937Z,32.19
2022-08-03T12:55:30.676Z,32.25
2022-08-03T12:57:35.066Z,32.19
2022-08-03T12:58:37.874Z,32.25
2022-08-03T12:59:41.405Z,32.25
2022-08-03T13:00:21.263Z,32.31
2022-08-03T13:01:55.264Z,32.31
2022-08-03T13:03:38.504Z,32.31
2022-08-03T13:05:24.730Z,32.25
2022-08-03T13:06:27.471Z,32.25
2022-08-03T13:07:49.410Z,32.25
2022-08-03T13:09:24.024Z,32.25
2022-08-03T13:10:26.896Z,32.25
2022-08-03T13:11:47.579Z,32.31
2022-08-03T13:13:33.194Z,32.44
2022-08-03T13:14:36.035Z,32.38
2022-08-03T13:15:48.051Z,32.38
2022-08-03T13:17:26.741Z,32.44
2022-08-03T13:18:30.415Z,32.38
2022-08-03T13:19:34.084Z,32.38
2022-08-03T13:21:12.621Z,32.38
2022-08-03T13:22:39.701Z,32.31
2022-08-03T13:23:57.619Z,32.25
2022-08-03T13:25:32.168Z,32.25
2022-08-03T13:26:52.652Z,32.13
2022-08-03T13:29:00.981Z,32.25
2022-08-03T13:30:36.165Z,32.38
2022-08-03T13:31:50.929Z,32.44
2022-08-03T13:32:53.690Z,32.44
2022-08-03T13:34:28.343Z,32.50
2022-08-03T13:35:31.042Z,32.50
2022-08-03T13:36:59.150Z,32.50
2022-08-03T13:38:43.290Z,32.50
2022-08-03T13:39:58.893Z,32.50
2022-08-03T13:41:31.048Z,32.56
2022-08-03T13:43:05.943Z,32.75
2022-08-03T13:44:29.269Z,32.75
2022-08-03T13:45:32.952Z,32.75
2022-08-03T13:47:15.700Z,32.63
2022-08-03T13:48:37.172Z,32.44
2022-08-03T13:49:40.645Z,32.38
2022-08-03T13:51:31.061Z,32.25
2022-08-03T13:52:33.790Z,32.25
2022-08-03T13:53:36.583Z,32.19
2022-08-03T13:55:11.103Z,32.06
2022-08-03T13:56:13.885Z,32.00
2022-08-03T13:58:03.181Z,32.00
2022-08-03T13:59:42.164Z,31.81
2022-08-03T14:00:12.598Z,31.75
2022-08-03T14:01:54.302Z,31.69
2022-08-03T14:03:05.078Z,31.81
2022-08-03T14:04:57.169Z,31.94
2022-08-03T14:06:00.112Z,32.06
2022-08-03T14:07:02.824Z,32.13
2022-08-03T14:08:44.947Z,32.19
2022-08-03T14:09:52.335Z,32.19
2022-08-03T14:10:55.004Z,32.25
2022-08-03T14:13:17.459Z,32.25
2022-08-03T14:14:21.029Z,32.19
2022-08-03T14:15:23.849Z,32.19
2022-08-03T14:17:10.799Z,32.25
2022-08-03T14:18:37.199Z,32.31
2022-08-03T14:19:53.392Z,32.38
2022-08-03T14:22:27.520Z,32.56
2022-08-03T14:23:30.407Z,32.63
2022-08-03T14:24:35.057Z,32.63
2022-08-03T14:26:27.609Z,32.75
2022-08-03T14:27:40.645Z,32.75
2022-08-03T14:28:43.283Z,32.75
2022-08-03T14:30:17.684Z,32.63
2022-08-03T14:32:11.140Z,32.56
2022-08-03T14:33:15.688Z,32.13
2022-08-03T14:34:50.153Z,32.06
2022-08-03T14:35:52.735Z,31.94
2022-08-03T14:36:55.364Z,31.88
2022-08-03T14:38:30.188Z,31.88
2022-08-03T14:40:00.915Z,31.81
2022-08-03T14:41:04.578Z,31.75
2022-08-03T14:42:48.561Z,31.81
2022-08-03T14:44:01.251Z,31.88
2022-08-03T14:45:09.322Z,31.88
2022-08-03T14:46:54.900Z,31.88
2022-08-03T14:50:28.570Z,31.88
2022-08-03T14:51:51.226Z,32.06
2022-08-03T14:53:27.763Z,32.06
2022-08-03T14:54:30.326Z,32.13
2022-08-03T14:55:38.808Z,32.13
2022-08-03T14:57:28.334Z,32.19
2022-08-03T14:58:30.987Z,32.25
2022-08-03T14:59:56.433Z,32.38
2022-08-03T15:00:12.209Z,32.38
2022-08-03T15:02:06.201Z,32.38
2022-08-03T15:03:21.507Z,32.38
2022-08-03T15:04:56.035Z,32.31
2022-08-03T15:05:58.716Z,32.38
2022-08-03T15:07:01.537Z,32.38
2022-08-03T15:08:42.392Z,32.38
2022-08-03T15:10:18.100Z,32.31
2022-08-03T15:11:45.218Z,32.31
2022-08-03T15:13:21.072Z,32.25
2022-08-03T15:14:28.274Z,32.19
2022-08-03T15:15:35.625Z,32.13
2022-08-03T15:17:16.106Z,32.06
2022-08-03T15:18:35.658Z,32.00
2022-08-03T15:20:44.962Z,32.00
2022-08-03T15:23:10.014Z,31.88
2022-08-03T15:24:13.069Z,31.88
2022-08-03T15:26:28.508Z,31.88
2022-08-03T15:28:39.117Z,31.63
2022-08-03T15:30:07.434Z,31.63
2022-08-03T15:31:12.935Z,31.56
2022-08-03T15:32:55.822Z,31.50
2022-08-03T15:33:58.473Z,31.50
2022-08-03T15:35:01.145Z,31.50
2022-08-03T15:36:35.627Z,31.50
2022-08-03T15:37:47.597Z,31.50
2022-08-03T15:38:55.589Z,31.50
2022-08-03T15:40:46.493Z,31.56
2022-08-03T15:41:54.188Z,31.63
2022-08-03T15:42:59.679Z,31.63
2022-08-03T15:44:34.264Z,31.50
2022-08-03T15:45:37.289Z,31.44
2022-08-03T15:47:15.380Z,31.38
2022-08-03T15:48:50.291Z,31.44
2022-08-03T15:49:53.029Z,31.44
2022-08-03T15:51:01.273Z,31.50
2022-08-03T15:52:36.209Z,31.56
2022-08-03T15:53:38.836Z,31.56
2022-08-03T15:54:41.692Z,31.50
2022-08-03T15:56:22.661Z,31.44
2022-08-03T15:57:25.376Z,31.44
2022-08-03T16:00:11.803Z,31.38
2022-08-03T16:01:25.617Z,31.38
2022-08-03T16:02:28.901Z,31.38
2022-08-03T16:04:13.633Z,31.38
2022-08-03T16:05:41.355Z,31.44
2022-08-03T16:06:44.211Z,31.38
2022-08-03T16:08:02.893Z,31.38
2022-08-03T16:10:18.481Z,31.25
2022-08-03T16:11:23.303Z,31.19
2022-08-03T16:12:25.958Z,31.19
2022-08-03T16:15:08.307Z,31.19
2022-08-03T16:16:13.641Z,31.13
2022-08-03T16:17:16.272Z,31.19
2022-08-03T16:18:51.622Z,31.19
2022-08-03T16:19:57.288Z,31.13
2022-08-03T16:21:27.776Z,31.13
2022-08-03T16:23:24.186Z,31.06
2022-08-03T16:24:41.177Z,30.94
2022-08-03T16:25:49.039Z,30.94
2022-08-03T16:27:56.517Z,30.88
2022-08-03T16:29:23.279Z,30.75
2022-08-03T16:30:26.723Z,30.75
2022-08-03T16:32:04.102Z,30.63
2022-08-03T16:33:10.117Z,30.63
2022-08-03T16:34:15.076Z,30.63
2022-08-03T16:36:00.352Z,30.56
2022-08-03T16:37:36.458Z,30.56
2022-08-03T16:39:05.266Z,30.50
2022-08-03T16:40:40.418Z,30.44
2022-08-03T16:41:54.077Z,30.50
2022-08-03T16:43:03.457Z,30.50
2022-08-03T16:44:52.601Z,30.56
2022-08-03T16:45:55.318Z,30.63
2022-08-03T16:46:58.117Z,30.69
2022-08-03T16:48:51.709Z,30.75
2022-08-03T16:50:36.210Z,30.75
2022-08-03T16:51:40.323Z,30.81
2022-08-03T16:54:05.422Z,30.69
2022-08-03T16:55:15.914Z,30.63
2022-08-03T16:56:52.498Z,30.50
2022-08-03T16:59:36.200Z,30.50
2022-08-03T17:00:12.269Z,30.50
2022-08-03T17:02:12.661Z,30.56
2022-08-03T17:03:24.357Z,30.56
2022-08-03T17:05:43.680Z,30.63
2022-08-03T17:07:09.426Z,30.63
2022-08-03T17:08:27.177Z,30.69
2022-08-03T17:10:31.036Z,30.69
2022-08-03T17:11:37.079Z,30.69
2022-08-03T17:12:47.627Z,30.63
2022-08-03T17:14:33.172Z,30.63
2022-08-03T17:15:38.284Z,30.63
2022-08-03T17:17:04.170Z,30.63
2022-08-03T17:19:10.505Z,30.56
2022-08-03T17:20:29.730Z,30.56
2022-08-03T17:21:37.165Z,30.50
2022-08-03T17:23:35.267Z,30.50
2022-08-03T17:24:41.517Z,30.38
2022-08-03T17:26:20.793Z,30.31
2022-08-03T17:29:48.004Z,30.31
2022-08-03T17:30:55.059Z,30.31
2022-08-03T17:32:35.888Z,30.31
2022-08-03T17:35:14.314Z,30.25
2022-08-03T17:37:02.278Z,30.19
2022-08-03T17:39:06.890Z,30.19
2022-08-03T17:41:33.517Z,30.19
2022-08-03T17:44:13.313Z,30.19
2022-08-03T17:45:52.011Z,30.19
2022-08-03T17:47:42.279Z,30.13